sensor_id;sensor_type;location;lat;lon;timestamp;temperature;humidity
11538;DHT22;50159;49.426;11.182;2022-12-18T00:01:32;-11.60;99.90
11538;DHT22;50159;49.426;11.182;2022-12-18T00:04:02;-11.70;99.90
11538;DHT22;50159;49.426;11.182;2022-12-18T00:06:33;-11.70;99.90
11538;DHT22;50159;49.426;11.182;2022-12-18T00:09:02;-11.70;99.90
11538;DHT22;50159;49.426;11.182;2022-12-18T00:11:30;-11.70;99.90
11538;DHT22;50159;49.426;11.182;2022-12-18T00:13:59;-11.70;99.90
11538;DHT22;50159;49.426;11.182;2022-12-18T00:16:27;-11.70;99.90
11538;DHT22;50159;49.426;11.182;2022-12-18T00:18:57;-11.70;99.90
11538;DHT22;50159;49.426;11.182;2022-12-18T00:21:25;-11.70;99.90
11538;DHT22;50159;49.426;11.182;2022-12-18T00:23:53;-11.70;99.90
11538;DHT22;50159;49.426;11.182;2022-12-18T00:26:25;-11.80;99.90
11538;DHT22;50159;49.426;11.182;2022-12-18T00:28:54;-11.80;99.90
11538;DHT22;50159;49.426;11.182;2022-12-18T00:31:23;-11.80;99.90
11538;DHT22;50159;49.426;11.182;2022-12-18T00:33:54;-11.80;99.90
11538;DHT22;50159;49.426;11.182;2022-12-18T00:36:25;-11.90;99.90
11538;DHT22;50159;49.426;11.182;2022-12-18T00:38:55;-11.90;99.70
11538;DHT22;50159;49.426;11.182;2022-12-18T00:41:23;-11.90;99.90
11538;DHT22;50159;49.426;11.182;2022-12-18T00:44:12;-11.90;99.90
11538;DHT22;50159;49.426;11.182;2022-12-18T00:46:40;-11.90;99.90
11538;DHT22;50159;49.426;11.182;2022-12-18T00:49:08;-11.90;99.90
11538;DHT22;50159;49.426;11.182;2022-12-18T00:51:35;-11.90;99.90
11538;DHT22;50159;49.426;11.182;2022-12-18T00:54:02;-11.90;99.90
11538;DHT22;50159;49.426;11.182;2022-12-18T00:56:28;-11.90;99.90
11538;DHT22;50159;49.426;11.182;2022-12-18T00:58:55;-12.00;99.90
11538;DHT22;50159;49.426;11.182;2022-12-18T01:01:22;-12.00;99.90
11538;DHT22;50159;49.426;11.182;2022-12-18T01:03:49;-12.10;99.90
11538;DHT22;50159;49.426;11.182;2022-12-18T01:06:16;-12.00;99.90
11538;DHT22;50159;49.426;11.182;2022-12-18T01:08:44;-12.10;99.90
11538;DHT22;50159;49.426;11.182;2022-12-18T01:11:15;-12.20;99.90
11538;DHT22;50159;49.426;11.182;2022-12-18T01:13:44;-12.20;99.90
11538;DHT22;50159;49.426;11.182;2022-12-18T01:16:12;-12.20;99.90
11538;DHT22;50159;49.426;11.182;2022-12-18T01:18:40;-12.20;99.90
11538;DHT22;50159;49.426;11.182;2022-12-18T01:21:10;-12.20;99.90
11538;DHT22;50159;49.426;11.182;2022-12-18T01:23:39;-12.20;99.90
11538;DHT22;50159;49.426;11.182;2022-12-18T01:26:13;-12.20;99.90
11538;DHT22;50159;49.426;11.182;2022-12-18T01:28:42;-12.20;99.90
11538;DHT22;50159;49.426;11.182;2022-12-18T01:31:19;-12.20;99.70
11538;DHT22;50159;49.426;11.182;2022-12-18T01:33:52;-12.20;99.50
11538;DHT22;50159;49.426;11.182;2022-12-18T01:36:27;-12.30;99.40
11538;DHT22;50159;49.426;11.182;2022-12-18T01:38:55;-12.30;99.60
11538;DHT22;50159;49.426;11.182;2022-12-18T01:41:25;-12.30;99.90
11538;DHT22;50159;49.426;11.182;2022-12-18T01:47:56;-12.40;99.60
11538;DHT22;50159;49.426;11.182;2022-12-18T01:50:42;-12.50;99.40
11538;DHT22;50159;49.426;11.182;2022-12-18T01:53:21;-12.50;99.30
11538;DHT22;50159;49.426;11.182;2022-12-18T01:55:52;-12.60;99.30
11538;DHT22;50159;49.426;11.182;2022-12-18T02:01:30;-12.60;99.40
11538;DHT22;50159;49.426;11.182;2022-12-18T02:04:21;-12.60;99.10
11538;DHT22;50159;49.426;11.182;2022-12-18T02:07:05;-12.60;98.90
11538;DHT22;50159;49.426;11.182;2022-12-18T02:10:03;-12.60;99.50
11538;DHT22;50159;49.426;11.182;2022-12-18T02:12:49;-12.60;99.50
11538;DHT22;50159;49.426;11.182;2022-12-18T02:15:39;-12.50;99.30
11538;DHT22;50159;49.426;11.182;2022-12-18T02:18:22;-12.50;99.10
11538;DHT22;50159;49.426;11.182;2022-12-18T02:21:05;-12.50;99.10
11538;DHT22;50159;49.426;11.182;2022-12-18T02:26:48;-12.60;98.70
11538;DHT22;50159;49.426;11.182;2022-12-18T02:29:21;-12.70;99.50
11538;DHT22;50159;49.426;11.182;2022-12-18T02:31:57;-12.60;99.40
11538;DHT22;50159;49.426;11.182;2022-12-18T02:34:33;-12.60;99.00
11538;DHT22;50159;49.426;11.182;2022-12-18T02:37:07;-12.60;98.80
11538;DHT22;50159;49.426;11.182;2022-12-18T02:39:47;-12.60;99.20
11538;DHT22;50159;49.426;11.182;2022-12-18T02:42:16;-12.70;98.70
11538;DHT22;50159;49.426;11.182;2022-12-18T02:44:48;-12.70;98.60
11538;DHT22;50159;49.426;11.182;2022-12-18T02:47:20;-12.70;98.90
11538;DHT22;50159;49.426;11.182;2022-12-18T02:50:10;-12.70;98.80
11538;DHT22;50159;49.426;11.182;2022-12-18T02:55:55;-12.60;99.00
11538;DHT22;50159;49.426;11.182;2022-12-18T03:01:36;-12.40;99.80
11538;DHT22;50159;49.426;11.182;2022-12-18T03:04:19;-12.30;99.80
11538;DHT22;50159;49.426;11.182;2022-12-18T03:06:57;-12.20;99.90
11538;DHT22;50159;49.426;11.182;2022-12-18T03:09:35;-12.10;99.70
11538;DHT22;50159;49.426;11.182;2022-12-18T03:12:14;-12.10;99.70
11538;DHT22;50159;49.426;11.182;2022-12-18T03:15:08;-12.00;99.90
11538;DHT22;50159;49.426;11.182;2022-12-18T03:17:48;-11.90;99.90
11538;DHT22;50159;49.426;11.182;2022-12-18T03:20:21;-11.80;99.90
11538;DHT22;50159;49.426;11.182;2022-12-18T03:22:55;-11.70;99.90
11538;DHT22;50159;49.426;11.182;2022-12-18T03:25:27;-11.60;99.90
11538;DHT22;50159;49.426;11.182;2022-12-18T03:27:58;-11.50;99.90
11538;DHT22;50159;49.426;11.182;2022-12-18T03:30:29;-11.40;99.90
11538;DHT22;50159;49.426;11.182;2022-12-18T03:33:09;-11.40;99.90
11538;DHT22;50159;49.426;11.182;2022-12-18T03:35:43;-11.30;99.90
11538;DHT22;50159;49.426;11.182;2022-12-18T03:38:11;-11.20;99.90
11538;DHT22;50159;49.426;11.182;2022-12-18T03:40:52;-11.10;99.90
11538;DHT22;50159;49.426;11.182;2022-12-18T03:49:10;-10.80;99.90
11538;DHT22;50159;49.426;11.182;2022-12-18T03:51:50;-10.70;99.90
11538;DHT22;50159;49.426;11.182;2022-12-18T03:54:23;-10.60;99.90
11538;DHT22;50159;49.426;11.182;2022-12-18T03:57:05;-10.50;99.90
11538;DHT22;50159;49.426;11.182;2022-12-18T03:59:37;-10.40;99.90
11538;DHT22;50159;49.426;11.182;2022-12-18T04:02:06;-10.30;99.90
11538;DHT22;50159;49.426;11.182;2022-12-18T04:04:36;-10.20;99.90
11538;DHT22;50159;49.426;11.182;2022-12-18T04:07:05;-10.10;99.90
11538;DHT22;50159;49.426;11.182;2022-12-18T04:09:34;-10.00;99.90
11538;DHT22;50159;49.426;11.182;2022-12-18T04:12:03;-9.90;99.90
11538;DHT22;50159;49.426;11.182;2022-12-18T04:14:30;-9.80;99.90
11538;DHT22;50159;49.426;11.182;2022-12-18T04:17:03;-9.80;99.90
11538;DHT22;50159;49.426;11.182;2022-12-18T04:19:29;-9.70;99.90
11538;DHT22;50159;49.426;11.182;2022-12-18T04:21:56;-9.70;99.90
11538;DHT22;50159;49.426;11.182;2022-12-18T04:24:23;-9.70;99.90
11538;DHT22;50159;49.426;11.182;2022-12-18T04:26:49;-9.60;99.90
11538;DHT22;50159;49.426;11.182;2022-12-18T04:29:16;-9.50;99.90
11538;DHT22;50159;49.426;11.182;2022-12-18T04:31:43;-9.50;99.90
11538;DHT22;50159;49.426;11.182;2022-12-18T04:34:10;-9.40;99.90
11538;DHT22;50159;49.426;11.182;2022-12-18T04:36:36;-9.40;99.90
11538;DHT22;50159;49.426;11.182;2022-12-18T04:39:03;-9.30;99.90
11538;DHT22;50159;49.426;11.182;2022-12-18T04:41:30;-9.20;99.90
11538;DHT22;50159;49.426;11.182;2022-12-18T04:43:56;-9.20;99.90
11538;DHT22;50159;49.426;11.182;2022-12-18T04:46:23;-9.10;99.90
11538;DHT22;50159;49.426;11.182;2022-12-18T04:48:50;-9.10;99.90
11538;DHT22;50159;49.426;11.182;2022-12-18T04:51:17;-9.00;99.90
11538;DHT22;50159;49.426;11.182;2022-12-18T04:53:51;-8.90;99.90
11538;DHT22;50159;49.426;11.182;2022-12-18T04:56:18;-8.90;99.90
11538;DHT22;50159;49.426;11.182;2022-12-18T04:58:45;-8.80;99.90
11538;DHT22;50159;49.426;11.182;2022-12-18T05:01:14;-8.80;99.90
11538;DHT22;50159;49.426;11.182;2022-12-18T05:03:42;-8.80;99.90
11538;DHT22;50159;49.426;11.182;2022-12-18T05:06:10;-8.70;99.90
11538;DHT22;50159;49.426;11.182;2022-12-18T05:08:37;-8.70;99.90
11538;DHT22;50159;49.426;11.182;2022-12-18T05:11:06;-8.60;99.90
11538;DHT22;50159;49.426;11.182;2022-12-18T05:13:35;-8.60;99.90
11538;DHT22;50159;49.426;11.182;2022-12-18T05:16:04;-8.50;99.90
11538;DHT22;50159;49.426;11.182;2022-12-18T05:18:31;-8.50;99.90
11538;DHT22;50159;49.426;11.182;2022-12-18T05:20:58;-8.40;99.90
11538;DHT22;50159;49.426;11.182;2022-12-18T05:23:26;-8.40;99.90
11538;DHT22;50159;49.426;11.182;2022-12-18T05:25:55;-8.30;99.90
11538;DHT22;50159;49.426;11.182;2022-12-18T05:28:26;-8.30;99.90
11538;DHT22;50159;49.426;11.182;2022-12-18T05:30:57;-8.20;99.90
11538;DHT22;50159;49.426;11.182;2022-12-18T05:33:28;-8.20;99.90
11538;DHT22;50159;49.426;11.182;2022-12-18T05:35:59;-8.10;99.90
11538;DHT22;50159;49.426;11.182;2022-12-18T05:38:28;-8.10;99.90
11538;DHT22;50159;49.426;11.182;2022-12-18T05:40:57;-8.00;99.90
11538;DHT22;50159;49.426;11.182;2022-12-18T05:43:26;-7.90;99.90
11538;DHT22;50159;49.426;11.182;2022-12-18T05:45:53;-7.90;99.90
11538;DHT22;50159;49.426;11.182;2022-12-18T05:48:21;-7.80;99.90
11538;DHT22;50159;49.426;11.182;2022-12-18T05:50:49;-7.80;99.90
11538;DHT22;50159;49.426;11.182;2022-12-18T05:53:18;-7.70;99.90
11538;DHT22;50159;49.426;11.182;2022-12-18T05:55:46;-7.60;99.90
11538;DHT22;50159;49.426;11.182;2022-12-18T05:58:14;-7.60;99.90
11538;DHT22;50159;49.426;11.182;2022-12-18T06:00:43;-7.50;99.90
11538;DHT22;50159;49.426;11.182;2022-12-18T06:03:12;-7.40;99.90
11538;DHT22;50159;49.426;11.182;2022-12-18T06:05:43;-7.30;99.90
11538;DHT22;50159;49.426;11.182;2022-12-18T06:08:12;-7.20;99.90
11538;DHT22;50159;49.426;11.182;2022-12-18T06:10:40;-7.20;99.90
11538;DHT22;50159;49.426;11.182;2022-12-18T06:13:07;-7.10;99.90
11538;DHT22;50159;49.426;11.182;2022-12-18T06:15:37;-7.00;99.90
11538;DHT22;50159;49.426;11.182;2022-12-18T06:18:04;-7.00;99.90
11538;DHT22;50159;49.426;11.182;2022-12-18T06:20:31;-6.90;99.90
11538;DHT22;50159;49.426;11.182;2022-12-18T06:22:59;-6.90;99.90
11538;DHT22;50159;49.426;11.182;2022-12-18T06:25:26;-6.80;99.90
11538;DHT22;50159;49.426;11.182;2022-12-18T06:27:53;-6.80;99.90
11538;DHT22;50159;49.426;11.182;2022-12-18T06:30:20;-6.70;99.90
11538;DHT22;50159;49.426;11.182;2022-12-18T06:32:48;-6.70;99.90
11538;DHT22;50159;49.426;11.182;2022-12-18T06:35:22;-6.60;99.90
11538;DHT22;50159;49.426;11.182;2022-12-18T06:37:49;-6.60;99.90
11538;DHT22;50159;49.426;11.182;2022-12-18T06:40:16;-6.60;99.90
11538;DHT22;50159;49.426;11.182;2022-12-18T06:42:43;-6.50;99.90
11538;DHT22;50159;49.426;11.182;2022-12-18T06:45:10;-6.50;99.90
11538;DHT22;50159;49.426;11.182;2022-12-18T06:47:37;-6.50;99.90
11538;DHT22;50159;49.426;11.182;2022-12-18T06:50:04;-6.40;99.90
11538;DHT22;50159;49.426;11.182;2022-12-18T06:52:32;-6.40;99.90
11538;DHT22;50159;49.426;11.182;2022-12-18T06:55:00;-6.40;99.90
11538;DHT22;50159;49.426;11.182;2022-12-18T06:57:26;-6.40;99.90
11538;DHT22;50159;49.426;11.182;2022-12-18T06:59:53;-6.30;99.90
11538;DHT22;50159;49.426;11.182;2022-12-18T07:02:20;-6.30;99.90
11538;DHT22;50159;49.426;11.182;2022-12-18T07:04:49;-6.30;99.90
11538;DHT22;50159;49.426;11.182;2022-12-18T07:07:16;-6.20;99.90
11538;DHT22;50159;49.426;11.182;2022-12-18T07:09:43;-6.20;99.90
11538;DHT22;50159;49.426;11.182;2022-12-18T07:12:10;-6.10;99.90
11538;DHT22;50159;49.426;11.182;2022-12-18T07:14:36;-6.10;99.90
11538;DHT22;50159;49.426;11.182;2022-12-18T07:17:03;-6.10;99.90
11538;DHT22;50159;49.426;11.182;2022-12-18T07:19:32;-6.00;99.90
11538;DHT22;50159;49.426;11.182;2022-12-18T07:21:59;-6.00;99.90
11538;DHT22;50159;49.426;11.182;2022-12-18T07:24:27;-5.90;99.90
11538;DHT22;50159;49.426;11.182;2022-12-18T07:26:54;-5.90;99.90
11538;DHT22;50159;49.426;11.182;2022-12-18T07:29:21;-5.80;99.90
11538;DHT22;50159;49.426;11.182;2022-12-18T07:31:47;-5.80;99.90
11538;DHT22;50159;49.426;11.182;2022-12-18T07:34:14;-5.70;99.90
11538;DHT22;50159;49.426;11.182;2022-12-18T07:36:42;-5.70;99.90
11538;DHT22;50159;49.426;11.182;2022-12-18T07:39:10;-5.60;99.90
11538;DHT22;50159;49.426;11.182;2022-12-18T07:41:37;-5.60;99.90
11538;DHT22;50159;49.426;11.182;2022-12-18T07:44:12;-5.60;99.90
11538;DHT22;50159;49.426;11.182;2022-12-18T07:46:39;-5.50;99.90
11538;DHT22;50159;49.426;11.182;2022-12-18T07:49:06;-5.40;99.90
11538;DHT22;50159;49.426;11.182;2022-12-18T07:51:33;-5.40;99.90
11538;DHT22;50159;49.426;11.182;2022-12-18T07:53:59;-5.40;99.90
11538;DHT22;50159;49.426;11.182;2022-12-18T07:56:26;-5.30;99.90
11538;DHT22;50159;49.426;11.182;2022-12-18T07:58:56;-5.30;99.90
11538;DHT22;50159;49.426;11.182;2022-12-18T08:01:22;-5.20;99.90
11538;DHT22;50159;49.426;11.182;2022-12-18T08:03:50;-5.20;99.90
11538;DHT22;50159;49.426;11.182;2022-12-18T08:06:18;-5.10;99.90
11538;DHT22;50159;49.426;11.182;2022-12-18T08:08:48;-5.10;99.90
11538;DHT22;50159;49.426;11.182;2022-12-18T08:11:15;-5.00;99.90
11538;DHT22;50159;49.426;11.182;2022-12-18T08:13:42;-5.00;99.90
11538;DHT22;50159;49.426;11.182;2022-12-18T08:16:09;-5.00;99.90
11538;DHT22;50159;49.426;11.182;2022-12-18T08:18:37;-4.90;99.90
11538;DHT22;50159;49.426;11.182;2022-12-18T08:21:18;-4.90;99.90
11538;DHT22;50159;49.426;11.182;2022-12-18T08:23:49;-4.90;99.90
11538;DHT22;50159;49.426;11.182;2022-12-18T08:26:17;-4.80;99.90
11538;DHT22;50159;49.426;11.182;2022-12-18T08:28:46;-4.70;99.90
11538;DHT22;50159;49.426;11.182;2022-12-18T08:31:13;-4.70;99.90
11538;DHT22;50159;49.426;11.182;2022-12-18T08:33:41;-4.60;99.90
11538;DHT22;50159;49.426;11.182;2022-12-18T08:36:09;-4.60;99.90
11538;DHT22;50159;49.426;11.182;2022-12-18T08:38:36;-4.50;99.90
11538;DHT22;50159;49.426;11.182;2022-12-18T08:41:08;-4.50;99.90
11538;DHT22;50159;49.426;11.182;2022-12-18T08:43:37;-4.40;99.90
11538;DHT22;50159;49.426;11.182;2022-12-18T08:46:24;-4.40;99.90
11538;DHT22;50159;49.426;11.182;2022-12-18T08:48:53;-4.30;99.90
11538;DHT22;50159;49.426;11.182;2022-12-18T08:51:22;-4.30;99.90
11538;DHT22;50159;49.426;11.182;2022-12-18T08:53:49;-4.30;99.90
11538;DHT22;50159;49.426;11.182;2022-12-18T08:56:16;-4.20;99.90
11538;DHT22;50159;49.426;11.182;2022-12-18T08:58:43;-4.10;99.90
11538;DHT22;50159;49.426;11.182;2022-12-18T09:01:11;-4.10;99.90
11538;DHT22;50159;49.426;11.182;2022-12-18T09:03:39;-4.00;99.90
11538;DHT22;50159;49.426;11.182;2022-12-18T09:06:07;-4.00;99.90
11538;DHT22;50159;49.426;11.182;2022-12-18T09:08:34;-3.90;99.90
11538;DHT22;50159;49.426;11.182;2022-12-18T09:11:01;-3.90;99.90
11538;DHT22;50159;49.426;11.182;2022-12-18T09:13:28;-3.80;99.90
11538;DHT22;50159;49.426;11.182;2022-12-18T09:15:55;-3.80;99.90
11538;DHT22;50159;49.426;11.182;2022-12-18T09:18:23;-3.80;99.90
11538;DHT22;50159;49.426;11.182;2022-12-18T09:20:50;-3.80;99.90
11538;DHT22;50159;49.426;11.182;2022-12-18T09:23:21;-3.70;99.90
11538;DHT22;50159;49.426;11.182;2022-12-18T09:25:48;-3.70;99.90
11538;DHT22;50159;49.426;11.182;2022-12-18T09:28:17;-3.40;99.90
11538;DHT22;50159;49.426;11.182;2022-12-18T09:30:47;-3.50;99.90
11538;DHT22;50159;49.426;11.182;2022-12-18T09:33:16;-3.50;99.90
11538;DHT22;50159;49.426;11.182;2022-12-18T09:35:44;-3.40;99.90
11538;DHT22;50159;49.426;11.182;2022-12-18T09:38:18;-3.30;99.90
11538;DHT22;50159;49.426;11.182;2022-12-18T09:40:49;-3.30;99.90
11538;DHT22;50159;49.426;11.182;2022-12-18T09:43:37;-3.20;99.90
11538;DHT22;50159;49.426;11.182;2022-12-18T09:46:14;-3.20;99.90
11538;DHT22;50159;49.426;11.182;2022-12-18T09:48:49;-3.10;99.90
11538;DHT22;50159;49.426;11.182;2022-12-18T09:51:23;-3.00;99.90
11538;DHT22;50159;49.426;11.182;2022-12-18T09:53:58;-2.90;99.90
11538;DHT22;50159;49.426;11.182;2022-12-18T09:56:34;-2.90;99.90
11538;DHT22;50159;49.426;11.182;2022-12-18T09:59:04;-2.90;99.90
11538;DHT22;50159;49.426;11.182;2022-12-18T10:01:32;-3.00;99.90
11538;DHT22;50159;49.426;11.182;2022-12-18T10:04:10;-3.00;99.90
11538;DHT22;50159;49.426;11.182;2022-12-18T10:06:57;-3.00;99.90
11538;DHT22;50159;49.426;11.182;2022-12-18T10:13:13;-3.00;99.90
11538;DHT22;50159;49.426;11.182;2022-12-18T10:18:50;-2.90;99.90
11538;DHT22;50159;49.426;11.182;2022-12-18T10:21:45;-2.90;99.90
11538;DHT22;50159;49.426;11.182;2022-12-18T10:24:39;-2.70;99.90
11538;DHT22;50159;49.426;11.182;2022-12-18T10:27:18;-2.60;99.90
11538;DHT22;50159;49.426;11.182;2022-12-18T10:29:47;-2.40;99.90
11538;DHT22;50159;49.426;11.182;2022-12-18T10:32:29;-2.30;99.90
11538;DHT22;50159;49.426;11.182;2022-12-18T10:34:57;-2.20;99.90
11538;DHT22;50159;49.426;11.182;2022-12-18T10:37:29;-2.10;99.90
11538;DHT22;50159;49.426;11.182;2022-12-18T10:40:13;-2.00;99.90
11538;DHT22;50159;49.426;11.182;2022-12-18T10:43:13;-2.00;99.90
11538;DHT22;50159;49.426;11.182;2022-12-18T10:45:42;-2.00;99.90
11538;DHT22;50159;49.426;11.182;2022-12-18T10:48:24;-2.00;99.90
11538;DHT22;50159;49.426;11.182;2022-12-18T10:50:51;-2.00;99.90
11538;DHT22;50159;49.426;11.182;2022-12-18T10:53:40;-1.90;99.90
11538;DHT22;50159;49.426;11.182;2022-12-18T10:56:09;-1.90;99.90
11538;DHT22;50159;49.426;11.182;2022-12-18T10:58:38;-1.90;99.90
11538;DHT22;50159;49.426;11.182;2022-12-18T11:01:17;-1.90;99.90
11538;DHT22;50159;49.426;11.182;2022-12-18T11:03:59;-2.00;99.90
11538;DHT22;50159;49.426;11.182;2022-12-18T11:06:29;-2.00;99.90
11538;DHT22;50159;49.426;11.182;2022-12-18T11:09:04;-2.00;99.90
11538;DHT22;50159;49.426;11.182;2022-12-18T11:11:49;-2.00;99.90
11538;DHT22;50159;49.426;11.182;2022-12-18T11:14:27;-1.90;99.90
11538;DHT22;50159;49.426;11.182;2022-12-18T11:16:56;-1.90;99.90
11538;DHT22;50159;49.426;11.182;2022-12-18T11:19:52;-1.70;99.90
11538;DHT22;50159;49.426;11.182;2022-12-18T11:25:03;-1.50;99.90
11538;DHT22;50159;49.426;11.182;2022-12-18T11:27:59;-1.20;99.90
11538;DHT22;50159;49.426;11.182;2022-12-18T11:30:33;-0.80;99.90
11538;DHT22;50159;49.426;11.182;2022-12-18T11:33:05;-0.50;99.90
11538;DHT22;50159;49.426;11.182;2022-12-18T11:35:50;0.50;99.90
11538;DHT22;50159;49.426;11.182;2022-12-18T11:38:24;3.30;98.10
11538;DHT22;50159;49.426;11.182;2022-12-18T11:41:04;6.20;82.30
11538;DHT22;50159;49.426;11.182;2022-12-18T11:43:50;8.00;62.50
11538;DHT22;50159;49.426;11.182;2022-12-18T11:46:32;8.70;53.60
11538;DHT22;50159;49.426;11.182;2022-12-18T11:49:21;9.70;50.50
11538;DHT22;50159;49.426;11.182;2022-12-18T11:54:53;10.40;44.10
11538;DHT22;50159;49.426;11.182;2022-12-18T12:00:24;10.40;42.40
11538;DHT22;50159;49.426;11.182;2022-12-18T12:11:44;8.30;43.60
11538;DHT22;50159;49.426;11.182;2022-12-18T12:17:29;5.60;48.10
11538;DHT22;50159;49.426;11.182;2022-12-18T12:20:08;4.70;51.70
11538;DHT22;50159;49.426;11.182;2022-12-18T12:23:22;4.50;53.60
11538;DHT22;50159;49.426;11.182;2022-12-18T12:26:08;4.70;53.60
11538;DHT22;50159;49.426;11.182;2022-12-18T12:31:57;5.80;51.80
11538;DHT22;50159;49.426;11.182;2022-12-18T12:34:49;6.00;50.60
11538;DHT22;50159;49.426;11.182;2022-12-18T12:40:28;5.10;50.40
11538;DHT22;50159;49.426;11.182;2022-12-18T12:43:22;4.50;52.80
11538;DHT22;50159;49.426;11.182;2022-12-18T12:46:18;4.30;54.50
11538;DHT22;50159;49.426;11.182;2022-12-18T12:49:03;4.80;55.50
11538;DHT22;50159;49.426;11.182;2022-12-18T12:51:39;5.10;53.40
11538;DHT22;50159;49.426;11.182;2022-12-18T12:54:17;5.20;53.60
11538;DHT22;50159;49.426;11.182;2022-12-18T12:57:09;5.20;53.90
11538;DHT22;50159;49.426;11.182;2022-12-18T12:59:52;5.30;53.00
11538;DHT22;50159;49.426;11.182;2022-12-18T13:02:42;5.20;52.40
11538;DHT22;50159;49.426;11.182;2022-12-18T13:05:25;5.00;53.20
11538;DHT22;50159;49.426;11.182;2022-12-18T13:08:07;4.90;54.00
11538;DHT22;50159;49.426;11.182;2022-12-18T13:10:41;4.80;53.70
11538;DHT22;50159;49.426;11.182;2022-12-18T13:13:15;4.60;54.10
11538;DHT22;50159;49.426;11.182;2022-12-18T13:16:06;4.50;54.70
11538;DHT22;50159;49.426;11.182;2022-12-18T13:18:35;4.20;54.50
11538;DHT22;50159;49.426;11.182;2022-12-18T13:23:55;3.60;55.20
11538;DHT22;50159;49.426;11.182;2022-12-18T13:28:56;2.90;58.30
11538;DHT22;50159;49.426;11.182;2022-12-18T13:34:18;2.10;61.30
11538;DHT22;50159;49.426;11.182;2022-12-18T13:36:57;1.60;61.20
11538;DHT22;50159;49.426;11.182;2022-12-18T13:39:58;1.20;62.70
11538;DHT22;50159;49.426;11.182;2022-12-18T13:42:37;0.60;65.40
11538;DHT22;50159;49.426;11.182;2022-12-18T13:45:38;0.40;67.40
11538;DHT22;50159;49.426;11.182;2022-12-18T13:48:27;0.20;68.80
11538;DHT22;50159;49.426;11.182;2022-12-18T13:51:04;-0.10;70.40
11538;DHT22;50159;49.426;11.182;2022-12-18T13:54:06;-0.20;72.10
11538;DHT22;50159;49.426;11.182;2022-12-18T13:56:47;-0.40;73.30
11538;DHT22;50159;49.426;11.182;2022-12-18T14:01:56;-0.70;77.90
11538;DHT22;50159;49.426;11.182;2022-12-18T14:04:34;-0.80;79.10
11538;DHT22;50159;49.426;11.182;2022-12-18T14:07:05;-0.90;81.50
11538;DHT22;50159;49.426;11.182;2022-12-18T14:09:39;-1.10;83.60
11538;DHT22;50159;49.426;11.182;2022-12-18T14:12:22;-1.20;86.40
11538;DHT22;50159;49.426;11.182;2022-12-18T14:15:34;-1.30;89.10
11538;DHT22;50159;49.426;11.182;2022-12-18T14:20:51;-1.50;92.40
11538;DHT22;50159;49.426;11.182;2022-12-18T14:23:36;-1.60;93.30
11538;DHT22;50159;49.426;11.182;2022-12-18T14:26:22;-1.60;94.20
11538;DHT22;50159;49.426;11.182;2022-12-18T14:29:00;-1.60;95.20
11538;DHT22;50159;49.426;11.182;2022-12-18T14:31:44;-1.70;95.70
11538;DHT22;50159;49.426;11.182;2022-12-18T14:34:16;-1.70;96.70
11538;DHT22;50159;49.426;11.182;2022-12-18T14:36:52;-1.80;97.20
11538;DHT22;50159;49.426;11.182;2022-12-18T14:39:21;-1.80;97.70
11538;DHT22;50159;49.426;11.182;2022-12-18T14:41:49;-1.90;98.10
11538;DHT22;50159;49.426;11.182;2022-12-18T14:44:16;-2.00;98.40
11538;DHT22;50159;49.426;11.182;2022-12-18T14:46:46;-2.10;99.10
11538;DHT22;50159;49.426;11.182;2022-12-18T14:49:33;-2.20;99.90
11538;DHT22;50159;49.426;11.182;2022-12-18T14:52:05;-2.30;99.90
11538;DHT22;50159;49.426;11.182;2022-12-18T14:54:46;-2.40;99.90
11538;DHT22;50159;49.426;11.182;2022-12-18T14:57:35;-2.50;99.90
11538;DHT22;50159;49.426;11.182;2022-12-18T15:00:06;-2.50;99.90
11538;DHT22;50159;49.426;11.182;2022-12-18T15:02:35;-2.60;99.90
11538;DHT22;50159;49.426;11.182;2022-12-18T15:07:53;-2.80;99.90
11538;DHT22;50159;49.426;11.182;2022-12-18T15:10:23;-2.90;99.90
11538;DHT22;50159;49.426;11.182;2022-12-18T15:20:54;-3.30;99.90
11538;DHT22;50159;49.426;11.182;2022-12-18T15:23:26;-3.30;99.90
11538;DHT22;50159;49.426;11.182;2022-12-18T15:28:55;-3.50;99.90
11538;DHT22;50159;49.426;11.182;2022-12-18T15:31:34;-3.50;99.90
11538;DHT22;50159;49.426;11.182;2022-12-18T15:36:34;-3.60;99.90
11538;DHT22;50159;49.426;11.182;2022-12-18T15:39:04;-3.60;99.90
11538;DHT22;50159;49.426;11.182;2022-12-18T15:41:34;-3.70;99.90
11538;DHT22;50159;49.426;11.182;2022-12-18T15:44:03;-3.70;99.90
11538;DHT22;50159;49.426;11.182;2022-12-18T15:46:48;-3.80;99.90
11538;DHT22;50159;49.426;11.182;2022-12-18T15:49:15;-3.80;99.90
11538;DHT22;50159;49.426;11.182;2022-12-18T15:51:42;-3.80;99.90
11538;DHT22;50159;49.426;11.182;2022-12-18T15:54:13;-3.90;99.90
11538;DHT22;50159;49.426;11.182;2022-12-18T15:56:42;-3.90;99.90
11538;DHT22;50159;49.426;11.182;2022-12-18T15:59:27;-3.90;99.90
11538;DHT22;50159;49.426;11.182;2022-12-18T16:01:57;-4.00;99.90
11538;DHT22;50159;49.426;11.182;2022-12-18T16:04:24;-4.00;99.90
11538;DHT22;50159;49.426;11.182;2022-12-18T16:06:51;-4.00;99.90
11538;DHT22;50159;49.426;11.182;2022-12-18T16:09:41;-4.00;99.90
11538;DHT22;50159;49.426;11.182;2022-12-18T16:12:16;-4.00;99.90
11538;DHT22;50159;49.426;11.182;2022-12-18T16:14:45;-4.00;99.90
11538;DHT22;50159;49.426;11.182;2022-12-18T16:17:13;-4.10;99.90
11538;DHT22;50159;49.426;11.182;2022-12-18T16:19:41;-4.10;99.90
11538;DHT22;50159;49.426;11.182;2022-12-18T16:22:23;-4.10;99.90
11538;DHT22;50159;49.426;11.182;2022-12-18T16:24:53;-4.10;99.90
11538;DHT22;50159;49.426;11.182;2022-12-18T16:27:22;-4.20;99.90
11538;DHT22;50159;49.426;11.182;2022-12-18T16:29:50;-4.20;99.90
11538;DHT22;50159;49.426;11.182;2022-12-18T16:32:19;-4.20;99.90
11538;DHT22;50159;49.426;11.182;2022-12-18T16:34:49;-4.20;99.90
11538;DHT22;50159;49.426;11.182;2022-12-18T16:37:16;-4.20;99.90
11538;DHT22;50159;49.426;11.182;2022-12-18T16:39:43;-4.30;99.90
11538;DHT22;50159;49.426;11.182;2022-12-18T16:42:16;-4.30;99.90
11538;DHT22;50159;49.426;11.182;2022-12-18T16:44:47;-4.30;99.90
11538;DHT22;50159;49.426;11.182;2022-12-18T16:47:15;-4.30;99.90
11538;DHT22;50159;49.426;11.182;2022-12-18T16:49:43;-4.10;99.90
11538;DHT22;50159;49.426;11.182;2022-12-18T16:52:11;-4.40;99.90
11538;DHT22;50159;49.426;11.182;2022-12-18T16:54:38;-4.30;99.90
11538;DHT22;50159;49.426;11.182;2022-12-18T16:57:05;-4.40;99.90
11538;DHT22;50159;49.426;11.182;2022-12-18T16:59:32;-4.40;99.90
11538;DHT22;50159;49.426;11.182;2022-12-18T17:01:59;-4.40;99.90
11538;DHT22;50159;49.426;11.182;2022-12-18T17:04:26;-4.50;99.90
11538;DHT22;50159;49.426;11.182;2022-12-18T17:06:53;-4.50;99.90
11538;DHT22;50159;49.426;11.182;2022-12-18T17:09:21;-4.50;99.90
11538;DHT22;50159;49.426;11.182;2022-12-18T17:11:52;-4.50;99.90
11538;DHT22;50159;49.426;11.182;2022-12-18T17:14:21;-4.50;99.90
11538;DHT22;50159;49.426;11.182;2022-12-18T17:16:50;-4.50;99.90